createdAt,value
2023-04-20T00:01:00.130Z,3.33
2023-04-20T00:03:27.476Z,3.20
2023-04-20T00:05:54.874Z,3.08
2023-04-20T00:08:21.571Z,3.22
2023-04-20T00:10:48.376Z,3.75
2023-04-20T00:13:15.091Z,3.45
2023-04-20T00:15:41.829Z,3.05
2023-04-20T00:18:08.551Z,2.95
2023-04-20T00:20:35.331Z,3.00
2023-04-20T00:23:02.002Z,3.20
2023-04-20T00:25:29.718Z,2.95
2023-04-20T00:27:56.674Z,3.40
2023-04-20T00:30:23.461Z,3.08
2023-04-20T00:32:50.234Z,3.00
2023-04-20T00:35:17.041Z,3.13
2023-04-20T00:37:44.438Z,3.10
2023-04-20T00:40:11.218Z,3.10
2023-04-20T00:42:38.101Z,3.40
2023-04-20T00:45:04.863Z,3.05
2023-04-20T00:47:31.611Z,3.70
2023-04-20T00:49:58.361Z,3.53
2023-04-20T00:52:25.057Z,4.25
2023-04-20T00:54:51.837Z,3.28
2023-04-20T00:57:18.497Z,3.40
2023-04-20T00:59:45.403Z,3.47
2023-04-20T01:02:12.179Z,3.88
2023-04-20T01:04:41.572Z,4.03
2023-04-20T01:07:08.297Z,3.67
2023-04-20T01:09:35.164Z,3.40
2023-04-20T01:12:02.638Z,4.00
2023-04-20T01:14:29.353Z,3.85
2023-04-20T01:16:56.561Z,4.15
2023-04-20T01:19:23.400Z,4.95
2023-04-20T01:21:50.108Z,4.20
2023-04-20T01:24:16.817Z,4.00
2023-04-20T01:26:43.558Z,3.72
2023-04-20T01:29:10.250Z,4.45
2023-04-20T01:31:37.051Z,3.83
2023-04-20T01:34:03.873Z,4.53
2023-04-20T01:36:30.935Z,4.78
2023-04-20T01:38:57.673Z,4.28
2023-04-20T01:41:24.725Z,4.65
2023-04-20T01:43:51.489Z,4.68
2023-04-20T01:46:18.175Z,5.00
2023-04-20T01:48:46.992Z,5.75
2023-04-20T01:51:14.971Z,5.15
2023-04-20T01:53:41.684Z,5.10
2023-04-20T01:56:08.378Z,4.90
2023-04-20T01:58:35.767Z,5.40
2023-04-20T02:01:02.752Z,5.18
2023-04-20T02:03:29.815Z,5.43
2023-04-20T02:05:56.596Z,4.60
2023-04-20T02:08:26.695Z,4.80
2023-04-20T02:10:53.417Z,5.55
2023-04-20T02:13:20.106Z,6.07
2023-04-20T02:15:46.870Z,5.55
2023-04-20T02:18:15.518Z,5.13
2023-04-20T02:20:42.276Z,5.10
2023-04-20T02:23:09.239Z,5.65
2023-04-20T02:25:36.116Z,5.93
2023-04-20T02:28:03.843Z,5.35
2023-04-20T02:30:30.997Z,5.75
2023-04-20T02:32:57.769Z,6.30
2023-04-20T02:35:24.481Z,6.07
2023-04-20T02:37:51.336Z,6.28
2023-04-20T02:40:18.098Z,5.75
2023-04-20T02:42:44.991Z,6.68
2023-04-20T02:45:12.059Z,7.13
2023-04-20T02:47:40.142Z,6.03
2023-04-20T02:50:07.465Z,6.40
2023-04-20T02:52:45.216Z,6.60
2023-04-20T02:55:11.968Z,6.95
2023-04-20T02:57:40.234Z,7.03
2023-04-20T03:00:09.540Z,6.72
2023-04-20T03:02:52.178Z,7.50
2023-04-20T03:05:19.255Z,6.90
2023-04-20T03:07:46.006Z,6.65
2023-04-20T03:10:12.971Z,7.45
2023-04-20T03:12:49.424Z,7.35
2023-04-20T03:15:34.477Z,6.43
2023-04-20T03:18:06.257Z,7.03
2023-04-20T03:20:33.271Z,7.20
2023-04-20T03:23:00.499Z,7.75
2023-04-20T03:25:27.647Z,7.22
2023-04-20T03:27:58.006Z,7.78
2023-04-20T03:30:25.083Z,7.72
2023-04-20T03:32:57.858Z,8.15
2023-04-20T03:35:24.940Z,7.28
2023-04-20T03:37:51.750Z,7.05
2023-04-20T03:40:18.533Z,7.30
2023-04-20T03:42:45.252Z,7.07
2023-04-20T03:45:12.083Z,8.45
2023-04-20T03:47:38.809Z,7.53
2023-04-20T03:50:05.729Z,8.63
2023-04-20T03:52:32.501Z,8.13
2023-04-20T03:55:03.429Z,7.47
2023-04-20T03:57:30.608Z,7.65
2023-04-20T03:59:57.505Z,7.50
2023-04-20T04:02:27.288Z,7.38
2023-04-20T04:04:55.581Z,7.38
2023-04-20T04:07:22.586Z,8.45
2023-04-20T04:09:50.248Z,7.68
2023-04-20T04:12:18.056Z,7.15
2023-04-20T04:14:46.181Z,7.40
2023-04-20T04:17:15.194Z,8.27
2023-04-20T04:19:43.727Z,7.80
2023-04-20T04:22:10.647Z,7.93
2023-04-20T04:24:45.144Z,7.30
2023-04-20T04:27:15.694Z,8.27
2023-04-20T04:29:51.892Z,8.23
2023-04-20T04:32:20.643Z,9.15
2023-04-20T04:34:48.336Z,7.55
2023-04-20T04:37:15.422Z,7.78
2023-04-20T04:39:47.760Z,8.57
2023-04-20T04:42:22.815Z,7.72
2023-04-20T04:44:51.738Z,8.18
2023-04-20T04:47:25.609Z,8.30
2023-04-20T04:49:52.694Z,8.18
2023-04-20T04:52:19.350Z,8.27
2023-04-20T04:54:46.250Z,8.25
2023-04-20T04:57:12.954Z,8.27
2023-04-20T04:59:39.777Z,8.00
2023-04-20T05:02:06.671Z,7.88
2023-04-20T05:04:33.507Z,9.13
2023-04-20T05:07:00.277Z,9.70
2023-04-20T05:09:33.281Z,8.00
2023-04-20T05:12:00.912Z,7.80
2023-04-20T05:14:27.670Z,8.30
2023-04-20T05:16:54.413Z,7.20
2023-04-20T05:19:21.247Z,8.73
2023-04-20T05:21:47.980Z,7.80
2023-04-20T05:24:14.726Z,7.95
2023-04-20T05:26:41.482Z,7.82
2023-04-20T05:29:08.283Z,7.95
2023-04-20T05:31:35.121Z,7.50
2023-04-20T05:34:02.878Z,7.40
2023-04-20T05:36:30.109Z,8.13
2023-04-20T05:38:56.818Z,8.38
2023-04-20T05:41:27.195Z,7.43
2023-04-20T05:43:54.431Z,8.10
2023-04-20T05:46:21.702Z,7.53
2023-04-20T05:48:48.541Z,8.32
2023-04-20T05:51:15.277Z,7.65
2023-04-20T05:53:42.303Z,8.00
2023-04-20T05:56:09.033Z,8.40
2023-04-20T05:58:37.465Z,8.43
2023-04-20T06:01:04.392Z,7.50
2023-04-20T06:03:31.524Z,7.93
2023-04-20T06:05:58.383Z,7.65
2023-04-20T06:08:25.129Z,7.70
2023-04-20T06:10:51.822Z,7.07
2023-04-20T06:13:18.538Z,7.50
2023-04-20T06:15:45.286Z,7.35
2023-04-20T06:18:12.049Z,6.70
2023-04-20T06:20:39.558Z,7.55
2023-04-20T06:23:06.305Z,6.50
2023-04-20T06:25:32.982Z,8.15
2023-04-20T06:27:59.794Z,6.40
2023-04-20T06:30:26.513Z,6.63
2023-04-20T06:32:53.354Z,6.90
2023-04-20T06:35:20.065Z,7.53
2023-04-20T06:37:46.812Z,6.53
2023-04-20T06:40:15.543Z,6.30
2023-04-20T06:42:42.912Z,6.25
2023-04-20T06:45:09.675Z,6.35
2023-04-20T06:47:36.995Z,7.13
2023-04-20T06:50:04.750Z,7.10
2023-04-20T06:52:32.008Z,6.30
2023-04-20T06:54:58.751Z,6.35
2023-04-20T06:57:25.477Z,7.35
2023-04-20T06:59:52.204Z,6.35
2023-04-20T07:02:19.126Z,6.88
2023-04-20T07:04:45.931Z,6.00
2023-04-20T07:07:12.693Z,6.63
2023-04-20T07:09:39.514Z,6.05
2023-04-20T07:12:06.219Z,6.03
2023-04-20T07:14:32.909Z,6.20
2023-04-20T07:16:59.684Z,5.38
2023-04-20T07:19:26.417Z,4.88
2023-04-20T07:21:53.184Z,5.30
2023-04-20T07:24:19.874Z,4.97
2023-04-20T07:26:46.660Z,5.75
2023-04-20T07:29:13.394Z,5.35
2023-04-20T07:31:40.132Z,5.45
2023-04-20T07:34:07.351Z,4.63
2023-04-20T07:36:34.322Z,5.80
2023-04-20T07:39:01.204Z,5.60
2023-04-20T07:41:27.922Z,6.03
2023-04-20T07:43:54.625Z,6.18
2023-04-20T07:46:21.419Z,5.93
2023-04-20T07:48:48.205Z,5.32
2023-04-20T07:51:14.944Z,5.43
2023-04-20T07:53:41.592Z,5.03
2023-04-20T07:56:08.341Z,4.78
2023-04-20T07:58:38.542Z,5.70
2023-04-20T08:01:05.347Z,5.25
2023-04-20T08:03:33.630Z,4.72
2023-04-20T08:06:00.851Z,4.78
2023-04-20T08:08:27.668Z,5.60
2023-04-20T08:10:54.387Z,5.20
2023-04-20T08:13:21.153Z,4.57
2023-04-20T08:15:47.894Z,4.65
2023-04-20T08:18:14.621Z,5.40
2023-04-20T08:20:41.557Z,5.88
2023-04-20T08:23:08.248Z,5.95
2023-04-20T08:25:35.018Z,5.10
2023-04-20T08:28:01.796Z,5.18
2023-04-20T08:30:29.877Z,5.00
2023-04-20T08:32:56.544Z,4.60
2023-04-20T08:35:23.284Z,4.45
2023-04-20T08:37:50.046Z,5.03
2023-04-20T08:40:16.780Z,4.40
2023-04-20T08:42:43.477Z,4.05
2023-04-20T08:45:10.210Z,3.83
2023-04-20T08:47:36.971Z,3.60
2023-04-20T08:50:03.896Z,3.38
2023-04-20T08:52:30.589Z,3.22
2023-04-20T08:54:58.104Z,2.83
2023-04-20T08:57:25.081Z,2.60
2023-04-20T08:59:51.980Z,2.50
2023-04-20T09:02:18.871Z,2.67
2023-04-20T09:04:49.067Z,2.17
2023-04-20T09:07:16.398Z,2.20
2023-04-20T09:09:43.085Z,2.20
2023-04-20T09:12:10.389Z,2.25
2023-04-20T09:14:37.066Z,2.20
2023-04-20T09:17:05.269Z,2.28
2023-04-20T09:19:31.967Z,1.73
2023-04-20T09:21:58.811Z,1.98
2023-04-20T09:24:25.534Z,1.60
2023-04-20T09:26:52.223Z,1.58
2023-04-20T09:29:18.947Z,1.98
2023-04-20T09:31:45.832Z,1.67
2023-04-20T09:34:12.517Z,1.80
2023-04-20T09:36:39.292Z,1.55
2023-04-20T09:39:06.014Z,1.95
2023-04-20T09:41:33.379Z,1.58
2023-04-20T09:44:00.356Z,1.88
2023-04-20T09:46:27.090Z,1.50
2023-04-20T09:48:53.782Z,2.13
2023-04-20T09:51:20.559Z,1.38
2023-04-20T09:53:47.309Z,1.73
2023-04-20T09:56:14.064Z,2.30
2023-04-20T09:58:40.839Z,1.80
2023-04-20T10:01:07.660Z,1.80
2023-04-20T10:03:35.109Z,1.70
2023-04-20T10:06:02.116Z,1.83
2023-04-20T10:08:28.801Z,1.55
2023-04-20T10:10:55.627Z,1.90
2023-04-20T10:13:23.328Z,1.75
2023-04-20T10:15:50.088Z,1.70
2023-04-20T10:18:17.909Z,2.72
2023-04-20T10:20:45.118Z,1.90
2023-04-20T10:23:11.908Z,1.90
2023-04-20T10:25:38.666Z,1.60
2023-04-20T10:28:06.323Z,1.50
2023-04-20T10:30:33.099Z,1.50
2023-04-20T10:32:59.799Z,1.60
2023-04-20T10:35:26.627Z,1.60
2023-04-20T10:37:53.341Z,2.08
2023-04-20T10:40:20.835Z,1.92
2023-04-20T10:42:47.506Z,1.42
2023-04-20T10:45:14.324Z,1.45
2023-04-20T10:47:41.194Z,1.80
2023-04-20T10:50:08.179Z,1.70
2023-04-20T10:52:36.148Z,1.55
2023-04-20T10:55:03.770Z,1.77
2023-04-20T10:57:30.503Z,1.50
2023-04-20T10:59:57.617Z,1.55
2023-04-20T11:02:24.558Z,1.83
2023-04-20T11:04:52.037Z,1.38
2023-04-20T11:07:20.186Z,1.60
2023-04-20T11:09:47.294Z,1.80
2023-04-20T11:12:14.874Z,1.20
2023-04-20T11:14:41.863Z,1.60
2023-04-20T11:17:08.577Z,1.27
2023-04-20T11:19:35.333Z,1.50
2023-04-20T11:22:02.010Z,1.52
2023-04-20T11:24:28.727Z,1.73
2023-04-20T11:26:55.490Z,1.75
2023-04-20T11:29:22.689Z,1.80
2023-04-20T11:31:49.545Z,1.60
2023-04-20T11:34:16.436Z,1.40
2023-04-20T11:36:43.134Z,4.45
2023-04-20T11:39:10.128Z,1.77
2023-04-20T11:41:39.117Z,2.15
2023-04-20T11:44:05.940Z,1.50
2023-04-20T11:46:32.632Z,1.38
2023-04-20T11:49:00.908Z,1.70
2023-04-20T11:51:28.293Z,1.40
2023-04-20T11:53:55.073Z,1.80
2023-04-20T11:56:21.764Z,1.40
2023-04-20T11:58:48.537Z,1.55
2023-04-20T12:01:16.962Z,1.30
2023-04-20T12:03:47.002Z,1.40
2023-04-20T12:06:14.503Z,1.52
2023-04-20T12:08:42.432Z,1.55
2023-04-20T12:11:09.430Z,1.10
2023-04-20T12:13:36.171Z,1.50
2023-04-20T12:16:03.063Z,1.30
2023-04-20T12:18:29.813Z,1.77
2023-04-20T12:20:56.576Z,1.58
2023-04-20T12:23:23.289Z,1.35
2023-04-20T12:25:50.027Z,1.20
2023-04-20T12:28:16.723Z,1.50
2023-04-20T12:30:43.479Z,1.13
2023-04-20T12:33:10.649Z,1.25
2023-04-20T12:35:37.434Z,1.30
2023-04-20T12:38:04.171Z,1.50
2023-04-20T12:40:30.868Z,1.25
2023-04-20T12:42:57.587Z,1.50
2023-04-20T12:45:24.412Z,1.45
2023-04-20T12:47:53.286Z,1.30
2023-04-20T12:50:21.657Z,1.30
2023-04-20T12:52:48.351Z,1.25
2023-04-20T12:55:15.069Z,1.10
2023-04-20T12:57:41.784Z,1.00
2023-04-20T13:00:08.539Z,1.20
2023-04-20T13:02:35.574Z,1.60
2023-04-20T13:05:02.341Z,1.13
2023-04-20T13:07:29.044Z,1.10
2023-04-20T13:09:55.775Z,1.33
2023-04-20T13:12:22.515Z,1.23
2023-04-20T13:14:49.260Z,1.08
2023-04-20T13:17:15.955Z,1.17
2023-04-20T13:19:42.701Z,1.40
2023-04-20T13:22:09.433Z,1.20
2023-04-20T13:24:36.404Z,1.08
2023-04-20T13:27:03.487Z,1.70
2023-04-20T13:29:30.334Z,2.13
2023-04-20T13:31:57.018Z,2.08
2023-04-20T13:34:23.762Z,1.35
2023-04-20T13:36:50.465Z,1.40
2023-04-20T13:39:19.269Z,1.58
2023-04-20T13:41:46.456Z,1.45
2023-04-20T13:44:16.146Z,1.40
2023-04-20T13:46:43.626Z,1.40
2023-04-20T13:49:12.701Z,1.52
2023-04-20T13:51:40.152Z,1.45
2023-04-20T13:54:07.443Z,1.40
2023-04-20T13:56:34.215Z,1.10
2023-04-20T13:59:04.039Z,1.30
2023-04-20T14:01:31.594Z,1.50
2023-04-20T14:03:58.530Z,1.58
2023-04-20T14:06:25.530Z,1.50
2023-04-20T14:08:52.313Z,1.58
2023-04-20T14:11:19.057Z,1.48
2023-04-20T14:13:45.886Z,1.88
2023-04-20T14:16:13.926Z,1.85
2023-04-20T14:18:40.674Z,1.90
2023-04-20T14:21:07.396Z,2.20
2023-04-20T14:23:34.093Z,2.40
2023-04-20T14:26:01.201Z,2.28
2023-04-20T14:28:28.017Z,2.20
2023-04-20T14:30:54.743Z,2.22
2023-04-20T14:33:21.786Z,2.33
2023-04-20T14:35:48.645Z,2.22
2023-04-20T14:38:15.364Z,2.13
2023-04-20T14:40:42.084Z,2.80
2023-04-20T14:43:08.774Z,3.38
2023-04-20T14:45:35.494Z,2.85
2023-04-20T14:48:02.418Z,2.72
2023-04-20T14:50:29.233Z,2.65
2023-04-20T14:52:56.197Z,2.60
2023-04-20T14:55:25.676Z,2.60
2023-04-20T14:57:52.533Z,2.97
2023-04-20T15:00:19.504Z,2.70
2023-04-20T15:02:46.551Z,2.83
2023-04-20T15:05:13.674Z,3.20
2023-04-20T15:07:40.528Z,3.40
2023-04-20T15:10:07.259Z,3.10
2023-04-20T15:12:33.956Z,3.30
2023-04-20T15:15:00.764Z,3.10
2023-04-20T15:17:27.495Z,2.90
2023-04-20T15:19:54.214Z,2.97
2023-04-20T15:22:20.927Z,3.50
2023-04-20T15:24:47.656Z,3.08
2023-04-20T15:27:14.400Z,3.50
2023-04-20T15:29:41.184Z,3.10
2023-04-20T15:32:07.988Z,3.50
2023-04-20T15:34:34.720Z,4.30
2023-04-20T15:37:01.405Z,4.70
2023-04-20T15:39:28.160Z,4.32
2023-04-20T15:41:54.934Z,4.13
2023-04-20T15:44:21.768Z,4.20
2023-04-20T15:46:48.512Z,4.18
2023-04-20T15:49:15.345Z,3.33
2023-04-20T15:51:44.285Z,4.15
2023-04-20T15:54:11.174Z,4.20
2023-04-20T15:56:37.904Z,4.30
2023-04-20T15:59:04.665Z,3.72
2023-04-20T16:01:31.432Z,4.30
2023-04-20T16:03:58.571Z,4.20
2023-04-20T16:06:25.655Z,4.15
2023-04-20T16:08:54.065Z,4.43
2023-04-20T16:11:21.833Z,4.28
2023-04-20T16:13:48.707Z,3.83
2023-04-20T16:16:15.704Z,4.40
2023-04-20T16:18:42.423Z,5.03
2023-04-20T16:21:09.074Z,4.38
2023-04-20T16:23:35.879Z,4.70
2023-04-20T16:26:03.062Z,4.72
2023-04-20T16:28:30.192Z,4.10
2023-04-20T16:30:57.258Z,5.40
2023-04-20T16:33:24.516Z,5.07
2023-04-20T16:35:51.295Z,4.50
2023-04-20T16:38:19.230Z,3.50
2023-04-20T16:40:46.002Z,3.30
2023-04-20T16:43:12.739Z,3.25
2023-04-20T16:45:39.457Z,3.38
2023-04-20T16:48:06.580Z,3.67
2023-04-20T16:50:35.429Z,3.67
2023-04-20T16:53:02.295Z,3.65
2023-04-20T16:55:29.055Z,3.58
2023-04-20T16:58:02.128Z,4.10
2023-04-20T17:00:28.951Z,3.83
2023-04-20T17:02:55.905Z,3.70
2023-04-20T17:05:22.750Z,3.92
2023-04-20T17:07:49.462Z,3.58
2023-04-20T17:10:16.181Z,4.30
2023-04-20T17:12:42.957Z,3.90
2023-04-20T17:15:09.821Z,3.80
2023-04-20T17:17:36.548Z,3.53
2023-04-20T17:20:07.057Z,3.40
2023-04-20T17:22:33.777Z,3.70
2023-04-20T17:25:00.586Z,3.60
2023-04-20T17:27:27.335Z,3.75
2023-04-20T17:29:55.900Z,3.75
2023-04-20T17:32:22.851Z,3.78
2023-04-20T17:34:51.468Z,3.47
2023-04-20T17:37:18.356Z,3.40
2023-04-20T17:39:48.370Z,3.83
2023-04-20T17:42:15.396Z,3.50
2023-04-20T17:44:42.138Z,3.10
2023-04-20T17:47:09.557Z,2.95
2023-04-20T17:49:36.644Z,3.17
2023-04-20T17:52:03.433Z,3.00
2023-04-20T17:54:30.151Z,3.10
2023-04-20T17:56:58.194Z,3.72
2023-04-20T17:59:24.918Z,3.13
2023-04-20T18:01:51.681Z,3.42
2023-04-20T18:04:18.924Z,3.45
2023-04-20T18:06:46.104Z,3.08
2023-04-20T18:09:14.141Z,3.13
2023-04-20T18:11:40.925Z,3.78
2023-04-20T18:14:07.622Z,4.13
2023-04-20T18:16:34.439Z,3.97
2023-04-20T18:19:01.154Z,3.58
2023-04-20T18:21:29.644Z,4.45
2023-04-20T18:23:56.514Z,3.22
2023-04-20T18:26:24.670Z,3.95
2023-04-20T18:28:51.398Z,4.00
2023-04-20T18:31:18.198Z,3.78
2023-04-20T18:33:44.874Z,4.57
2023-04-20T18:36:11.757Z,4.00
2023-04-20T18:38:38.588Z,4.13
2023-04-20T18:41:05.506Z,3.97
2023-04-20T18:43:32.469Z,5.10
2023-04-20T18:45:59.239Z,4.07
2023-04-20T18:48:25.929Z,4.05
2023-04-20T18:50:52.827Z,4.68
2023-04-20T18:53:19.550Z,4.43
2023-04-20T18:55:46.614Z,4.68
2023-04-20T18:58:13.367Z,4.63
2023-04-20T19:00:40.302Z,4.03
2023-04-20T19:03:07.291Z,4.53
2023-04-20T19:05:34.242Z,4.85
2023-04-20T19:08:00.953Z,4.93
2023-04-20T19:10:27.711Z,4.90
2023-04-20T19:12:54.422Z,4.50
2023-04-20T19:15:25.808Z,4.22
2023-04-20T19:17:52.971Z,4.15
2023-04-20T19:20:19.790Z,4.28
2023-04-20T19:22:46.631Z,4.78
2023-04-20T19:25:13.361Z,4.57
2023-04-20T19:27:40.183Z,4.65
2023-04-20T19:30:06.846Z,4.72
2023-04-20T19:32:33.956Z,4.57
2023-04-20T19:35:00.828Z,5.13
2023-04-20T19:37:27.574Z,4.93
2023-04-20T19:39:54.319Z,4.85
2023-04-20T19:42:22.869Z,5.68
2023-04-20T19:44:49.557Z,5.18
2023-04-20T19:47:16.319Z,5.20
2023-04-20T19:49:43.033Z,4.93
2023-04-20T19:52:09.767Z,5.47
2023-04-20T19:54:36.712Z,5.32
2023-04-20T19:57:03.460Z,6.28
2023-04-20T19:59:30.451Z,5.88
2023-04-20T20:01:57.283Z,6.60
2023-04-20T20:04:24.107Z,6.47
2023-04-20T20:06:51.380Z,6.60
2023-04-20T20:09:19.184Z,6.70
2023-04-20T20:11:50.058Z,6.10
2023-04-20T20:14:16.771Z,6.63
2023-04-20T20:16:43.573Z,5.80
2023-04-20T20:19:10.308Z,6.88
2023-04-20T20:21:37.270Z,7.07
2023-04-20T20:24:03.952Z,6.78
2023-04-20T20:26:30.748Z,6.30
2023-04-20T20:28:57.510Z,6.57
2023-04-20T20:31:24.334Z,7.00
2023-04-20T20:33:52.139Z,7.05
2023-04-20T20:36:18.970Z,6.75
2023-04-20T20:38:45.987Z,6.28
2023-04-20T20:41:13.689Z,6.97
2023-04-20T20:43:43.391Z,5.88
2023-04-20T20:46:10.201Z,6.22
2023-04-20T20:48:36.909Z,6.75
2023-04-20T20:51:03.636Z,6.95
2023-04-20T20:53:30.346Z,6.78
2023-04-20T20:55:57.138Z,6.65
2023-04-20T20:58:23.842Z,6.60
2023-04-20T21:00:50.705Z,6.55
2023-04-20T21:03:17.988Z,6.35
2023-04-20T21:05:44.862Z,7.50
2023-04-20T21:08:11.598Z,7.50
2023-04-20T21:10:38.385Z,7.75
2023-04-20T21:13:06.003Z,7.25
2023-04-20T21:15:32.679Z,7.95
2023-04-20T21:17:59.482Z,7.68
2023-04-20T21:20:26.258Z,7.07
2023-04-20T21:22:52.945Z,8.35
2023-04-20T21:25:19.739Z,7.63
2023-04-20T21:27:46.651Z,8.18
2023-04-20T21:30:13.478Z,8.13
2023-04-20T21:32:40.213Z,8.80
2023-04-20T21:35:06.907Z,8.52
2023-04-20T21:37:33.660Z,8.73
2023-04-20T21:40:00.621Z,7.78
2023-04-20T21:42:27.330Z,8.32
2023-04-20T21:44:54.122Z,9.05
2023-04-20T21:47:21.338Z,8.90
2023-04-20T21:49:48.094Z,8.98
2023-04-20T21:52:14.785Z,9.55
2023-04-20T21:54:42.070Z,9.02
2023-04-20T21:57:08.816Z,8.73
2023-04-20T21:59:35.649Z,9.10
2023-04-20T22:02:02.570Z,8.48
2023-04-20T22:04:29.797Z,9.88
2023-04-20T22:06:56.554Z,9.05
2023-04-20T22:09:23.278Z,9.70
2023-04-20T22:11:50.001Z,9.88
2023-04-20T22:14:17.052Z,9.27
2023-04-20T22:16:43.869Z,9.40
2023-04-20T22:19:10.582Z,9.38
2023-04-20T22:21:37.327Z,10.18
2023-04-20T22:24:04.029Z,9.48
2023-04-20T22:26:30.751Z,11.18
2023-04-20T22:28:57.522Z,10.00
2023-04-20T22:31:24.486Z,10.25
2023-04-20T22:33:51.276Z,9.75
2023-04-20T22:36:18.521Z,10.07
2023-04-20T22:38:45.333Z,12.15
2023-04-20T22:41:12.072Z,10.18
2023-04-20T22:43:38.798Z,11.35
2023-04-20T22:46:05.595Z,10.68
2023-04-20T22:48:32.448Z,10.55
2023-04-20T22:51:00.768Z,10.23
2023-04-20T22:53:28.006Z,10.77
2023-04-20T22:55:54.675Z,9.77
2023-04-20T22:58:21.370Z,10.77
2023-04-20T23:00:48.561Z,10.48
2023-04-20T23:03:16.000Z,11.00
2023-04-20T23:05:44.478Z,10.50
2023-04-20T23:08:11.214Z,10.50
2023-04-20T23:10:39.163Z,10.40
2023-04-20T23:13:05.853Z,11.05
2023-04-20T23:15:32.589Z,10.43
2023-04-20T23:17:59.598Z,10.82
2023-04-20T23:20:26.605Z,11.45
2023-04-20T23:22:53.373Z,11.20
2023-04-20T23:25:20.055Z,11.77
2023-04-20T23:27:46.836Z,11.23
2023-04-20T23:30:13.541Z,12.15
2023-04-20T23:32:41.288Z,10.95
2023-04-20T23:35:09.808Z,11.57
2023-04-20T23:37:36.514Z,11.13
2023-04-20T23:40:06.775Z,11.93
2023-04-20T23:42:33.547Z,11.05
2023-04-20T23:45:00.642Z,11.75
2023-04-20T23:47:27.503Z,11.55
2023-04-20T23:49:54.281Z,12.10
2023-04-20T23:52:21.084Z,11.57
2023-04-20T23:54:47.745Z,11.63
2023-04-20T23:57:14.501Z,12.57
2023-04-20T23:59:41.260Z,12.18
